sensor_id;sensor_type;location;lat;lon;timestamp;P1;durP1;ratioP1;P2;durP2;ratioP2
38557;SDS011;24333;42.626;23.308;2022-07-21T01:17:07;3.35;;;2.30;;
38557;SDS011;24333;42.626;23.308;2022-07-21T01:19:38;3.35;;;2.40;;
38557;SDS011;24333;42.626;23.308;2022-07-21T01:22:16;3.42;;;2.47;;
38557;SDS011;24333;42.626;23.308;2022-07-21T01:24:42;5.55;;;2.70;;
38557;SDS011;24333;42.626;23.308;2022-07-21T01:27:10;4.70;;;2.90;;
38557;SDS011;24333;42.626;23.308;2022-07-21T01:29:36;3.17;;;2.55;;
38557;SDS011;24333;42.626;23.308;2022-07-21T01:32:03;4.75;;;2.88;;
38557;SDS011;24333;42.626;23.308;2022-07-21T01:34:29;4.22;;;2.60;;
38557;SDS011;24333;42.626;23.308;2022-07-21T01:36:55;3.65;;;2.78;;
38557;SDS011;24333;42.626;23.308;2022-07-21T01:39:21;3.97;;;2.22;;
38557;SDS011;24333;42.626;23.308;2022-07-21T01:42:06;5.53;;;2.30;;
38557;SDS011;24333;42.626;23.308;2022-07-21T03:43:12;5.53;;;2.88;;
38557;SDS011;24333;42.626;23.308;2022-07-21T03:45:38;4.57;;;2.60;;
38557;SDS011;24333;42.626;23.308;2022-07-21T06:39:43;22.73;;;4.25;;
38557;SDS011;24333;42.626;23.308;2022-07-21T06:42:10;13.88;;;4.40;;
38557;SDS011;24333;42.626;23.308;2022-07-21T06:44:35;22.77;;;5.30;;
38557;SDS011;24333;42.626;23.308;2022-07-21T06:52:34;17.88;;;4.78;;
38557;SDS011;24333;42.626;23.308;2022-07-21T06:55:02;16.23;;;4.68;;
38557;SDS011;24333;42.626;23.308;2022-07-21T06:57:28;20.77;;;4.53;;
38557;SDS011;24333;42.626;23.308;2022-07-21T06:59:56;19.40;;;4.57;;
38557;SDS011;24333;42.626;23.308;2022-07-21T07:07:59;17.98;;;4.43;;
38557;SDS011;24333;42.626;23.308;2022-07-21T07:10:59;14.48;;;4.68;;
38557;SDS011;24333;42.626;23.308;2022-07-21T07:13:25;12.73;;;4.70;;
38557;SDS011;24333;42.626;23.308;2022-07-21T07:21:11;10.10;;;3.67;;
38557;SDS011;24333;42.626;23.308;2022-07-21T07:23:38;9.05;;;4.10;;
38557;SDS011;24333;42.626;23.308;2022-07-21T07:26:14;15.65;;;5.40;;
38557;SDS011;24333;42.626;23.308;2022-07-21T07:28:44;17.02;;;4.40;;
38557;SDS011;24333;42.626;23.308;2022-07-21T09:47:56;4.90;;;2.85;;
38557;SDS011;24333;42.626;23.308;2022-07-21T09:50:21;7.80;;;3.20;;
38557;SDS011;24333;42.626;23.308;2022-07-21T09:52:47;10.23;;;4.15;;
38557;SDS011;24333;42.626;23.308;2022-07-21T09:55:17;7.55;;;3.35;;
38557;SDS011;24333;42.626;23.308;2022-07-21T09:57:43;5.78;;;2.90;;
38557;SDS011;24333;42.626;23.308;2022-07-21T10:00:10;3.63;;;2.80;;
38557;SDS011;24333;42.626;23.308;2022-07-21T10:02:38;4.68;;;3.00;;
38557;SDS011;24333;42.626;23.308;2022-07-21T10:08:04;7.05;;;5.25;;
38557;SDS011;24333;42.626;23.308;2022-07-21T10:10:30;7.75;;;4.65;;
38557;SDS011;24333;42.626;23.308;2022-07-21T10:12:55;3.35;;;2.63;;
38557;SDS011;24333;42.626;23.308;2022-07-21T10:15:21;5.93;;;2.38;;
38557;SDS011;24333;42.626;23.308;2022-07-21T10:17:47;13.55;;;3.28;;
38557;SDS011;24333;42.626;23.308;2022-07-21T10:28:27;5.93;;;2.80;;
38557;SDS011;24333;42.626;23.308;2022-07-21T10:30:54;5.28;;;2.83;;
38557;SDS011;24333;42.626;23.308;2022-07-21T11:07:06;5.63;;;2.45;;
38557;SDS011;24333;42.626;23.308;2022-07-21T11:09:31;5.07;;;2.33;;
38557;SDS011;24333;42.626;23.308;2022-07-21T11:12:05;6.45;;;2.45;;
38557;SDS011;24333;42.626;23.308;2022-07-21T11:25:08;4.57;;;2.55;;
38557;SDS011;24333;42.626;23.308;2022-07-21T11:27:35;2.65;;;2.20;;
38557;SDS011;24333;42.626;23.308;2022-07-21T11:50:58;3.95;;;2.65;;
38557;SDS011;24333;42.626;23.308;2022-07-21T11:53:29;4.10;;;2.65;;
38557;SDS011;24333;42.626;23.308;2022-07-21T11:55:55;6.13;;;2.92;;
38557;SDS011;24333;42.626;23.308;2022-07-21T11:58:27;4.15;;;2.55;;
38557;SDS011;24333;42.626;23.308;2022-07-21T12:03:29;3.45;;;2.88;;
38557;SDS011;24333;42.626;23.308;2022-07-21T12:05:54;4.18;;;2.53;;
38557;SDS011;24333;42.626;23.308;2022-07-21T12:08:20;4.70;;;2.70;;
38557;SDS011;24333;42.626;23.308;2022-07-21T12:26:24;5.72;;;3.30;;
38557;SDS011;24333;42.626;23.308;2022-07-21T12:28:50;3.97;;;3.10;;
38557;SDS011;24333;42.626;23.308;2022-07-21T14:16:15;7.18;;;2.83;;
38557;SDS011;24333;42.626;23.308;2022-07-21T14:18:41;4.20;;;2.90;;
38557;SDS011;24333;42.626;23.308;2022-07-21T14:21:07;10.82;;;3.13;;
38557;SDS011;24333;42.626;23.308;2022-07-21T14:23:33;9.27;;;3.22;;
38557;SDS011;24333;42.626;23.308;2022-07-21T14:25:59;7.82;;;2.80;;
38557;SDS011;24333;42.626;23.308;2022-07-21T14:28:24;8.25;;;3.10;;
38557;SDS011;24333;42.626;23.308;2022-07-21T14:30:50;8.75;;;3.13;;
38557;SDS011;24333;42.626;23.308;2022-07-21T14:33:19;7.13;;;3.13;;
38557;SDS011;24333;42.626;23.308;2022-07-21T14:35:45;4.85;;;2.47;;
38557;SDS011;24333;42.626;23.308;2022-07-21T14:38:10;7.50;;;3.03;;
38557;SDS011;24333;42.626;23.308;2022-07-21T14:40:45;7.07;;;2.70;;
38557;SDS011;24333;42.626;23.308;2022-07-21T14:45:57;4.38;;;2.88;;
38557;SDS011;24333;42.626;23.308;2022-07-21T14:48:22;7.38;;;2.50;;
38557;SDS011;24333;42.626;23.308;2022-07-21T14:50:48;5.85;;;2.88;;
38557;SDS011;24333;42.626;23.308;2022-07-21T14:53:13;7.18;;;2.78;;
38557;SDS011;24333;42.626;23.308;2022-07-21T14:55:38;4.82;;;2.83;;
38557;SDS011;24333;42.626;23.308;2022-07-21T14:58:04;7.38;;;2.63;;
38557;SDS011;24333;42.626;23.308;2022-07-21T15:00:31;10.18;;;3.35;;
38557;SDS011;24333;42.626;23.308;2022-07-21T15:02:56;7.57;;;3.05;;
38557;SDS011;24333;42.626;23.308;2022-07-21T15:05:21;6.30;;;3.05;;
38557;SDS011;24333;42.626;23.308;2022-07-21T15:07:47;6.82;;;2.75;;
38557;SDS011;24333;42.626;23.308;2022-07-21T15:10:15;5.38;;;2.55;;
38557;SDS011;24333;42.626;23.308;2022-07-21T15:18:11;11.90;;;2.70;;
38557;SDS011;24333;42.626;23.308;2022-07-21T15:20:38;9.15;;;2.50;;
38557;SDS011;24333;42.626;23.308;2022-07-21T16:13:55;8.85;;;2.80;;
38557;SDS011;24333;42.626;23.308;2022-07-21T16:16:41;9.50;;;2.83;;
38557;SDS011;24333;42.626;23.308;2022-07-21T16:19:07;7.13;;;3.10;;
38557;SDS011;24333;42.626;23.308;2022-07-21T16:21:33;10.45;;;3.53;;
38557;SDS011;24333;42.626;23.308;2022-07-21T16:23:58;15.13;;;3.05;;
38557;SDS011;24333;42.626;23.308;2022-07-21T16:26:24;6.78;;;2.92;;
38557;SDS011;24333;42.626;23.308;2022-07-21T16:28:51;11.85;;;3.17;;
38557;SDS011;24333;42.626;23.308;2022-07-21T16:31:30;12.80;;;3.38;;
38557;SDS011;24333;42.626;23.308;2022-07-21T16:33:56;13.30;;;3.20;;
38557;SDS011;24333;42.626;23.308;2022-07-21T16:36:21;11.02;;;2.95;;
38557;SDS011;24333;42.626;23.308;2022-07-21T16:38:47;8.30;;;3.60;;
38557;SDS011;24333;42.626;23.308;2022-07-21T16:41:13;13.60;;;3.50;;
38557;SDS011;24333;42.626;23.308;2022-07-21T16:43:39;6.65;;;3.03;;
38557;SDS011;24333;42.626;23.308;2022-07-21T16:46:04;10.73;;;3.63;;
38557;SDS011;24333;42.626;23.308;2022-07-21T16:48:29;11.18;;;3.22;;
38557;SDS011;24333;42.626;23.308;2022-07-21T16:50:55;13.80;;;3.88;;
38557;SDS011;24333;42.626;23.308;2022-07-21T16:53:26;18.25;;;4.88;;
